Manseau, Canada
Current Conditions -  °F | °C
As of 12:16 AM on Sunday 21 Dec 2014 (Local Time) from CYRQ Reporting Station
Overcast Overcast  
Wind Chill:   Ceiling: 1400
Heat Index: 14°   Visibility: 9mi
Dew Point: 12°   Wind: 5mph
Humidity: 93%   Direction: 40°NE
Pressure: 30.37"   Gusts: NA
Location:  46.37°N, 72.02°W
Report Text: CYRQ 210516Z AUTO 04004KT 9SM SCT008 OVC014 M10/M11 A3037 RMK SLP289
Loading
Personal Weather Stations






























Interactive Weather Map New forecast layout! Learn more

10-Day Weather Forecast

Advertisements
Track Severe Weather on mobile